createdAt,value
2023-02-03T00:02:02.801Z,1.80
2023-02-03T00:05:06.760Z,2.10
2023-02-03T00:08:10.475Z,1.55
2023-02-03T00:11:15.509Z,1.80
2023-02-03T00:14:18.594Z,2.10
2023-02-03T00:17:22.289Z,1.35
2023-02-03T00:20:26.396Z,1.90
2023-02-03T00:23:32.121Z,2.67
2023-02-03T00:26:35.355Z,2.45
2023-02-03T00:29:38.869Z,1.75
2023-02-03T00:32:42.094Z,1.50
2023-02-03T00:35:47.115Z,2.40
2023-02-03T00:38:50.616Z,1.40
2023-02-03T00:41:54.021Z,1.52
2023-02-03T00:44:57.283Z,2.00
2023-02-03T00:48:00.705Z,1.95
2023-02-03T00:51:03.864Z,0.85
2023-02-03T00:54:07.245Z,2.00
2023-02-03T00:57:10.516Z,1.45
2023-02-03T01:00:15.684Z,1.50
2023-02-03T01:03:20.132Z,1.80
2023-02-03T01:06:25.347Z,1.55
2023-02-03T01:09:31.920Z,1.48
2023-02-03T01:12:36.524Z,1.98
2023-02-03T01:15:46.176Z,2.25
2023-02-03T01:18:50.497Z,1.90
2023-02-03T01:21:55.265Z,2.17
2023-02-03T01:24:59.605Z,2.15
2023-02-03T01:28:02.750Z,1.27
2023-02-03T01:31:13.796Z,1.77
2023-02-03T01:34:18.583Z,1.95
2023-02-03T01:37:22.037Z,1.77
2023-02-03T01:40:25.432Z,2.25
2023-02-03T01:43:30.705Z,1.87
2023-02-03T01:46:47.716Z,2.92
2023-02-03T01:49:56.803Z,1.67
2023-02-03T01:53:07.586Z,1.90
2023-02-03T01:56:11.287Z,1.35
2023-02-03T01:59:16.581Z,1.40
2023-02-03T02:02:20.363Z,1.62
2023-02-03T02:05:43.188Z,1.25
2023-02-03T02:08:49.734Z,1.15
2023-02-03T02:11:54.976Z,1.70
2023-02-03T02:14:58.196Z,1.35
2023-02-03T02:18:26.821Z,1.50
2023-02-03T02:22:14.858Z,1.42
2023-02-03T02:25:40.679Z,2.22
2023-02-03T02:28:47.124Z,1.80
2023-02-03T02:32:01.139Z,1.50
2023-02-03T02:35:07.268Z,1.60
2023-02-03T02:38:17.697Z,2.08
2023-02-03T02:41:30.680Z,1.65
2023-02-03T02:44:36.549Z,1.70
2023-02-03T02:47:39.800Z,2.00
2023-02-03T02:50:47.539Z,1.90
2023-02-03T02:53:55.204Z,1.60
2023-02-03T02:57:01.328Z,1.85
2023-02-03T03:00:06.256Z,1.73
2023-02-03T03:03:15.714Z,2.08
2023-02-03T03:06:25.537Z,1.95
2023-02-03T03:09:40.950Z,1.95
2023-02-03T03:12:49.589Z,1.98
2023-02-03T03:15:54.332Z,2.60
2023-02-03T03:19:14.952Z,2.05
2023-02-03T03:22:19.302Z,2.55
2023-02-03T03:25:26.502Z,2.40
2023-02-03T03:28:58.691Z,2.40
2023-02-03T03:32:02.718Z,2.30
2023-02-03T03:35:06.914Z,2.87
2023-02-03T03:38:16.000Z,2.47
2023-02-03T03:41:52.201Z,2.60
2023-02-03T03:45:02.280Z,2.30
2023-02-03T03:48:55.530Z,2.37
2023-02-03T03:52:02.493Z,2.03
2023-02-03T03:55:09.203Z,2.70
2023-02-03T03:58:16.292Z,2.75
2023-02-03T04:01:20.669Z,2.17
2023-02-03T04:04:24.835Z,2.17
2023-02-03T04:07:48.368Z,2.00
2023-02-03T04:10:51.817Z,1.15
2023-02-03T04:13:54.954Z,1.65
2023-02-03T04:16:59.056Z,1.70
2023-02-03T04:20:03.842Z,2.00
2023-02-03T04:23:08.317Z,2.12
2023-02-03T04:26:11.402Z,2.35
2023-02-03T04:29:14.742Z,2.72
2023-02-03T04:32:18.297Z,3.37
2023-02-03T04:35:21.627Z,2.15
2023-02-03T04:38:24.713Z,2.50
2023-02-03T04:41:28.236Z,2.37
2023-02-03T04:44:32.731Z,1.98
2023-02-03T04:47:37.715Z,2.20
2023-02-03T04:50:40.813Z,2.17
2023-02-03T04:53:45.286Z,2.43
2023-02-03T04:56:48.526Z,1.92
2023-02-03T04:59:51.824Z,2.80
2023-02-03T05:02:55.603Z,2.45
2023-02-03T05:05:59.104Z,2.20
2023-02-03T05:09:02.323Z,2.80
2023-02-03T05:12:06.016Z,2.28
2023-02-03T05:15:09.551Z,2.40
2023-02-03T05:18:13.097Z,2.65
2023-02-03T05:21:16.307Z,3.00
2023-02-03T05:24:22.120Z,2.72
2023-02-03T05:27:25.459Z,3.08
2023-02-03T05:30:28.784Z,2.80
2023-02-03T05:33:32.986Z,2.70
2023-02-03T05:36:36.407Z,3.20
2023-02-03T05:39:39.513Z,2.83
2023-02-03T05:42:50.269Z,3.47
2023-02-03T05:45:53.435Z,3.67
2023-02-03T05:48:56.994Z,3.05
2023-02-03T05:52:00.132Z,2.80
2023-02-03T05:55:04.623Z,3.50
2023-02-03T05:58:07.877Z,3.17
2023-02-03T06:01:11.957Z,3.17
2023-02-03T06:04:15.412Z,3.58
2023-02-03T06:07:18.527Z,3.08
2023-02-03T06:10:22.522Z,4.18
2023-02-03T06:13:25.690Z,3.00
2023-02-03T06:16:30.636Z,3.58
2023-02-03T06:19:33.695Z,3.75
2023-02-03T06:22:37.793Z,3.70
2023-02-03T06:25:41.034Z,3.20
2023-02-03T06:28:44.519Z,3.58
2023-02-03T06:31:47.833Z,3.60
2023-02-03T06:34:51.394Z,3.67
2023-02-03T06:37:54.494Z,3.47
2023-02-03T06:40:57.955Z,3.70
2023-02-03T06:44:01.194Z,3.42
2023-02-03T06:47:04.583Z,4.07
2023-02-03T06:50:08.564Z,3.55
2023-02-03T06:53:11.961Z,3.72
2023-02-03T06:56:15.106Z,5.03
2023-02-03T06:59:18.966Z,4.50
2023-02-03T07:02:23.756Z,5.30
2023-02-03T07:05:29.275Z,5.00
2023-02-03T07:08:32.423Z,4.43
2023-02-03T07:11:45.109Z,5.55
2023-02-03T07:14:48.738Z,5.25
2023-02-03T07:17:54.995Z,9.07
2023-02-03T07:20:58.245Z,4.87
2023-02-03T07:24:03.124Z,3.47
2023-02-03T07:27:06.308Z,3.40
2023-02-03T07:30:11.530Z,3.53
2023-02-03T07:33:16.034Z,5.00
2023-02-03T07:36:19.392Z,3.92
2023-02-03T07:39:22.411Z,4.75
2023-02-03T07:42:25.952Z,4.97
2023-02-03T07:45:29.501Z,4.85
2023-02-03T07:48:32.859Z,5.12
2023-02-03T07:51:35.937Z,5.05
2023-02-03T07:54:39.147Z,4.85
2023-02-03T07:57:43.716Z,7.43
2023-02-03T08:00:47.268Z,4.95
2023-02-03T08:03:51.225Z,3.37
2023-02-03T08:06:55.236Z,4.35
2023-02-03T08:09:58.772Z,3.42
2023-02-03T08:13:01.864Z,3.67
2023-02-03T08:16:05.754Z,3.87
2023-02-03T08:19:08.880Z,4.37
2023-02-03T08:22:16.182Z,5.43
2023-02-03T08:25:21.689Z,5.50
2023-02-03T08:28:27.353Z,7.00
2023-02-03T08:31:31.581Z,7.00
2023-02-03T08:34:35.111Z,8.17
2023-02-03T08:37:38.361Z,7.00
2023-02-03T08:40:41.730Z,4.95
2023-02-03T08:43:45.434Z,5.37
2023-02-03T08:46:53.334Z,4.80
2023-02-03T08:49:56.520Z,4.32
2023-02-03T08:53:00.072Z,5.95
2023-02-03T08:56:11.351Z,6.50
2023-02-03T08:59:15.547Z,6.85
2023-02-03T09:02:19.804Z,6.85
2023-02-03T09:05:23.371Z,9.40
2023-02-03T09:08:26.756Z,15.60
2023-02-03T09:11:30.210Z,11.80
2023-02-03T09:14:33.852Z,11.93
2023-02-03T09:17:37.149Z,8.68
2023-02-03T09:20:40.221Z,6.22
2023-02-03T09:23:45.054Z,5.43
2023-02-03T09:26:48.315Z,6.23
2023-02-03T09:29:51.867Z,5.95
2023-02-03T09:32:56.679Z,5.62
2023-02-03T09:36:01.729Z,7.22
2023-02-03T09:39:04.995Z,7.55
2023-02-03T09:42:53.744Z,6.62
2023-02-03T09:46:18.404Z,5.57
2023-02-03T09:49:21.829Z,6.18
2023-02-03T09:52:41.555Z,4.95
2023-02-03T09:55:45.759Z,4.90
2023-02-03T09:58:49.237Z,4.15
2023-02-03T10:01:58.386Z,4.85
2023-02-03T10:05:06.767Z,4.70
2023-02-03T10:08:37.797Z,4.60
2023-02-03T10:12:08.099Z,4.20
2023-02-03T10:15:14.030Z,4.72
2023-02-03T10:18:21.563Z,6.22
2023-02-03T10:21:34.072Z,5.60
2023-02-03T10:24:48.130Z,6.40
2023-02-03T10:27:58.788Z,6.87
2023-02-03T10:31:06.002Z,6.87
2023-02-03T10:34:17.188Z,6.28
2023-02-03T10:37:46.775Z,6.22
2023-02-03T10:40:50.092Z,6.12
2023-02-03T10:43:54.836Z,5.82
2023-02-03T10:50:11.397Z,5.35
2023-02-03T10:53:35.329Z,5.00
2023-02-03T10:56:40.194Z,4.15
2023-02-03T10:59:46.047Z,4.90
2023-02-03T11:03:15.963Z,4.35
2023-02-03T11:06:19.348Z,4.68
2023-02-03T11:09:42.924Z,3.60
2023-02-03T11:12:46.181Z,2.95
2023-02-03T11:15:58.121Z,3.00
2023-02-03T11:19:05.109Z,2.62
2023-02-03T11:22:08.535Z,3.42
2023-02-03T11:25:18.624Z,2.83
2023-02-03T11:28:22.296Z,2.80
2023-02-03T11:31:36.160Z,2.62
2023-02-03T11:34:43.098Z,2.67
2023-02-03T11:37:48.470Z,2.55
2023-02-03T11:41:00.195Z,3.10
2023-02-03T11:44:11.198Z,3.42
2023-02-03T11:47:17.177Z,3.28
2023-02-03T11:50:46.939Z,2.92
2023-02-03T11:54:04.255Z,2.35
2023-02-03T11:57:30.806Z,2.30
2023-02-03T12:00:49.710Z,2.40
2023-02-03T12:04:02.538Z,2.37
2023-02-03T12:07:30.639Z,2.30
2023-02-03T12:10:52.527Z,2.00
2023-02-03T12:14:06.003Z,2.15
2023-02-03T12:17:23.663Z,2.17
2023-02-03T12:20:45.703Z,1.95
2023-02-03T12:24:25.119Z,1.65
2023-02-03T12:27:31.023Z,1.48
2023-02-03T12:30:47.101Z,1.80
2023-02-03T12:34:05.990Z,1.63
2023-02-03T12:37:15.460Z,1.55
2023-02-03T12:40:43.270Z,1.75
2023-02-03T12:43:49.550Z,1.75
2023-02-03T12:47:07.956Z,2.08
2023-02-03T12:50:15.263Z,1.83
2023-02-03T12:53:21.728Z,5.65
2023-02-03T12:56:34.357Z,2.42
2023-02-03T12:59:38.879Z,2.53
2023-02-03T13:03:06.968Z,2.47
2023-02-03T13:06:19.139Z,1.98
2023-02-03T13:10:01.067Z,2.20
2023-02-03T13:13:07.807Z,1.98
2023-02-03T13:16:12.087Z,2.10
2023-02-03T13:19:20.655Z,2.33
2023-02-03T13:22:24.711Z,2.30
2023-02-03T13:25:35.749Z,2.58
2023-02-03T13:28:57.810Z,2.05
2023-02-03T13:32:28.891Z,2.12
2023-02-03T13:35:57.010Z,2.00
2023-02-03T13:39:33.502Z,2.20
2023-02-03T13:42:45.836Z,2.60
2023-02-03T13:45:51.065Z,2.58
2023-02-03T13:48:54.909Z,2.75
2023-02-03T13:51:57.947Z,2.97
2023-02-03T13:55:02.201Z,2.65
2023-02-03T13:58:07.910Z,2.37
2023-02-03T14:01:26.864Z,2.40
2023-02-03T14:04:32.021Z,3.28
2023-02-03T14:07:39.963Z,3.58
2023-02-03T14:10:43.321Z,2.20
2023-02-03T14:13:46.893Z,3.30
2023-02-03T14:16:54.724Z,2.67
2023-02-03T14:19:58.370Z,3.83
2023-02-03T14:23:04.991Z,2.72
2023-02-03T14:26:29.940Z,2.92
2023-02-03T14:29:35.359Z,2.93
2023-02-03T14:33:00.489Z,2.58
2023-02-03T14:36:04.348Z,3.33
2023-02-03T14:39:25.502Z,2.92
2023-02-03T14:42:50.486Z,4.40
2023-02-03T14:49:23.445Z,7.87
2023-02-03T14:52:43.293Z,15.57
2023-02-03T14:56:25.883Z,6.82
2023-02-03T14:59:40.916Z,4.75
2023-02-03T15:03:13.229Z,9.35
2023-02-03T15:06:43.935Z,9.95
2023-02-03T15:09:48.290Z,3.25
2023-02-03T15:12:53.500Z,4.85
2023-02-03T15:15:59.582Z,2.58
2023-02-03T15:19:09.101Z,3.40
2023-02-03T15:22:26.528Z,6.57
2023-02-03T15:25:31.382Z,8.23
2023-02-03T15:28:34.871Z,4.70
2023-02-03T15:31:46.078Z,4.90
2023-02-03T15:34:50.489Z,2.33
2023-02-03T15:38:01.559Z,3.90
2023-02-03T15:41:19.307Z,5.53
2023-02-03T15:44:54.643Z,3.40
2023-02-03T15:48:29.040Z,1.53
2023-02-03T15:51:44.528Z,5.87
2023-02-03T15:54:53.805Z,4.97
2023-02-03T15:57:56.933Z,2.53
2023-02-03T16:01:04.360Z,5.22
2023-02-03T16:04:10.388Z,5.25
2023-02-03T16:07:31.980Z,8.77
2023-02-03T16:10:35.524Z,5.10
2023-02-03T16:13:44.751Z,3.90
2023-02-03T16:17:04.269Z,4.55
2023-02-03T16:20:11.406Z,4.10
2023-02-03T16:23:24.268Z,4.32
2023-02-03T16:26:30.378Z,6.30
2023-02-03T16:29:54.639Z,3.70
2023-02-03T16:33:28.755Z,4.07
2023-02-03T16:36:50.740Z,3.87
2023-02-03T16:40:12.282Z,4.00
2023-02-03T16:43:35.727Z,3.08
2023-02-03T16:46:57.460Z,4.65
2023-02-03T16:50:29.413Z,3.90
2023-02-03T16:53:40.697Z,3.67
2023-02-03T16:56:44.278Z,5.35
2023-02-03T16:59:47.365Z,3.97
2023-02-03T17:02:51.833Z,3.35
2023-02-03T17:05:55.689Z,4.03
2023-02-03T17:08:59.466Z,2.78
2023-02-03T17:12:03.535Z,2.90
2023-02-03T17:15:08.706Z,3.67
2023-02-03T17:18:15.596Z,3.67
2023-02-03T17:21:25.562Z,2.15
2023-02-03T17:24:29.375Z,4.22
2023-02-03T17:27:34.197Z,3.97
2023-02-03T17:30:38.501Z,4.35
2023-02-03T17:33:42.099Z,3.17
2023-02-03T17:36:46.481Z,3.83
2023-02-03T17:53:18.479Z,3.75
2023-02-03T17:56:25.194Z,3.90
2023-02-03T17:59:29.995Z,3.72
2023-02-03T18:02:33.583Z,3.27
2023-02-03T18:05:39.798Z,3.03
2023-02-03T18:08:46.573Z,3.42
2023-02-03T18:11:51.019Z,2.78
2023-02-03T18:14:55.989Z,2.87
2023-02-03T18:18:01.486Z,1.95
2023-02-03T18:21:06.820Z,1.90
2023-02-03T18:24:12.887Z,2.40
2023-02-03T18:27:17.802Z,2.45
2023-02-03T18:33:48.169Z,2.28
2023-02-03T18:36:52.658Z,2.78
2023-02-03T18:39:57.028Z,2.47
2023-02-03T18:43:02.537Z,1.58
2023-02-03T18:46:10.112Z,1.20
2023-02-03T18:49:16.340Z,1.62
2023-02-03T18:52:22.145Z,1.83
2023-02-03T18:55:33.342Z,2.47
2023-02-03T18:58:38.405Z,1.80
2023-02-03T19:01:46.694Z,1.67
2023-02-03T19:04:51.497Z,1.92
2023-02-03T19:07:56.782Z,1.58
2023-02-03T19:11:01.128Z,1.48
2023-02-03T19:17:11.106Z,1.67
2023-02-03T19:20:17.827Z,0.98
2023-02-03T19:23:23.934Z,1.05
2023-02-03T19:26:29.097Z,0.80
2023-02-03T19:29:33.698Z,0.88
2023-02-03T19:32:38.618Z,0.65
2023-02-03T19:35:45.024Z,0.73
2023-02-03T19:38:50.571Z,0.70
2023-02-03T19:41:55.138Z,0.60
2023-02-03T19:45:00.550Z,0.90
2023-02-03T19:48:05.104Z,0.37
2023-02-03T19:51:12.943Z,1.00
2023-02-03T19:54:18.330Z,1.00
2023-02-03T19:57:38.613Z,1.67
2023-02-03T20:00:43.872Z,1.42
2023-02-03T20:03:51.424Z,0.82
2023-02-03T20:06:55.003Z,1.42
2023-02-03T20:10:00.449Z,0.80
2023-02-03T20:13:08.952Z,1.20
2023-02-03T20:16:17.274Z,1.35
2023-02-03T20:19:23.792Z,0.80
2023-02-03T20:22:31.137Z,1.20
2023-02-03T20:25:36.772Z,1.20
2023-02-03T20:28:41.954Z,1.02
2023-02-03T20:31:49.039Z,1.10
2023-02-03T20:34:56.110Z,1.08
2023-02-03T20:38:02.055Z,1.50
2023-02-03T20:41:12.128Z,1.90
2023-02-03T20:44:17.730Z,2.25
2023-02-03T20:50:40.620Z,1.33
2023-02-03T20:53:47.118Z,1.60
2023-02-03T20:56:54.924Z,1.27
2023-02-03T21:00:01.572Z,1.83
2023-02-03T21:03:25.231Z,1.30
2023-02-03T21:06:32.341Z,1.30
2023-02-03T21:09:37.490Z,1.00
2023-02-03T21:12:42.395Z,0.73
2023-02-03T21:15:50.740Z,0.90
2023-02-03T21:19:00.900Z,1.27
2023-02-03T21:22:23.013Z,1.52
2023-02-03T21:25:34.214Z,1.00
2023-02-03T21:28:38.333Z,1.50
2023-02-03T21:31:46.073Z,1.12
2023-02-03T21:34:52.198Z,1.05
2023-02-03T21:38:02.955Z,0.73
2023-02-03T21:41:18.770Z,1.40
2023-02-03T21:44:34.458Z,1.75
2023-02-03T21:47:38.172Z,1.33
2023-02-03T21:50:42.586Z,1.23
2023-02-03T21:53:56.477Z,1.08
2023-02-03T21:57:02.322Z,1.33
2023-02-03T22:00:43.750Z,1.37
2023-02-03T22:03:51.620Z,1.70
2023-02-03T22:06:56.785Z,1.70
2023-02-03T22:10:00.488Z,1.62
2023-02-03T22:13:04.961Z,1.02
2023-02-03T22:16:09.743Z,1.83
2023-02-03T22:19:13.116Z,1.47
2023-02-03T22:22:17.271Z,2.10
2023-02-03T22:25:20.730Z,1.70
2023-02-03T22:28:24.373Z,2.22
2023-02-03T22:31:27.734Z,1.50
2023-02-03T22:34:31.336Z,2.05
2023-02-03T22:37:35.215Z,1.10
2023-02-03T22:40:38.665Z,1.48
2023-02-03T22:43:41.791Z,1.12
2023-02-03T22:46:45.398Z,1.48
2023-02-03T22:49:48.766Z,1.75
2023-02-03T22:52:54.314Z,1.92
2023-02-03T22:55:57.531Z,1.85
2023-02-03T22:59:00.882Z,2.15
2023-02-03T23:02:03.987Z,1.60
2023-02-03T23:05:09.281Z,2.12
2023-02-03T23:08:12.507Z,1.87
2023-02-03T23:11:16.402Z,1.70
2023-02-03T23:14:19.710Z,1.55
2023-02-03T23:17:23.209Z,1.77
2023-02-03T23:20:26.519Z,1.92
2023-02-03T23:23:29.790Z,1.55
2023-02-03T23:26:33.221Z,1.85
2023-02-03T23:29:38.310Z,1.80
2023-02-03T23:32:42.747Z,1.33
2023-02-03T23:35:46.248Z,1.62
2023-02-03T23:38:49.304Z,1.70
2023-02-03T23:41:52.674Z,1.80
2023-02-03T23:44:56.204Z,1.40
2023-02-03T23:47:59.596Z,1.95
2023-02-03T23:51:02.819Z,1.73
2023-02-03T23:54:07.795Z,1.77
2023-02-03T23:57:11.121Z,1.87
